sensor_id;sensor_type;location;lat;lon;timestamp;P1;durP1;ratioP1;P2;durP2;ratioP2
21251;SDS011;10784;50.578;17.878;2023-02-15T00:02:22;16.52;;;5.97;;
21251;SDS011;10784;50.578;17.878;2023-02-15T00:04:56;14.75;;;6.18;;
21251;SDS011;10784;50.578;17.878;2023-02-15T00:07:29;20.33;;;8.07;;
21251;SDS011;10784;50.578;17.878;2023-02-15T00:10:02;21.90;;;7.50;;
21251;SDS011;10784;50.578;17.878;2023-02-15T00:12:35;24.48;;;8.45;;
21251;SDS011;10784;50.578;17.878;2023-02-15T00:15:08;23.27;;;8.05;;
21251;SDS011;10784;50.578;17.878;2023-02-15T00:17:40;20.33;;;6.75;;
21251;SDS011;10784;50.578;17.878;2023-02-15T00:20:14;23.83;;;8.20;;
21251;SDS011;10784;50.578;17.878;2023-02-15T00:22:46;28.27;;;9.13;;
21251;SDS011;10784;50.578;17.878;2023-02-15T00:25:19;24.67;;;9.95;;
21251;SDS011;10784;50.578;17.878;2023-02-15T00:27:52;23.48;;;8.68;;
21251;SDS011;10784;50.578;17.878;2023-02-15T00:30:25;20.75;;;8.68;;
21251;SDS011;10784;50.578;17.878;2023-02-15T00:32:57;24.25;;;8.35;;
21251;SDS011;10784;50.578;17.878;2023-02-15T00:35:30;30.83;;;8.77;;
21251;SDS011;10784;50.578;17.878;2023-02-15T00:38:03;20.77;;;8.07;;
21251;SDS011;10784;50.578;17.878;2023-02-15T00:40:36;34.45;;;10.70;;
21251;SDS011;10784;50.578;17.878;2023-02-15T00:43:09;27.05;;;9.38;;
21251;SDS011;10784;50.578;17.878;2023-02-15T00:45:42;32.33;;;9.40;;
21251;SDS011;10784;50.578;17.878;2023-02-15T00:48:16;45.05;;;12.05;;
21251;SDS011;10784;50.578;17.878;2023-02-15T00:50:50;41.67;;;12.98;;
21251;SDS011;10784;50.578;17.878;2023-02-15T00:53:24;27.88;;;10.85;;
21251;SDS011;10784;50.578;17.878;2023-02-15T00:55:57;32.70;;;12.27;;
21251;SDS011;10784;50.578;17.878;2023-02-15T00:58:30;27.52;;;10.38;;
21251;SDS011;10784;50.578;17.878;2023-02-15T01:01:04;40.40;;;13.95;;
21251;SDS011;10784;50.578;17.878;2023-02-15T01:03:38;22.70;;;10.10;;
21251;SDS011;10784;50.578;17.878;2023-02-15T01:06:11;34.95;;;11.25;;
21251;SDS011;10784;50.578;17.878;2023-02-15T01:08:44;33.22;;;11.68;;
21251;SDS011;10784;50.578;17.878;2023-02-15T01:11:19;36.60;;;11.80;;
21251;SDS011;10784;50.578;17.878;2023-02-15T01:13:56;39.05;;;12.93;;
21251;SDS011;10784;50.578;17.878;2023-02-15T01:16:30;39.10;;;13.00;;
21251;SDS011;10784;50.578;17.878;2023-02-15T01:19:03;40.42;;;14.88;;
21251;SDS011;10784;50.578;17.878;2023-02-15T01:21:36;39.10;;;13.10;;
21251;SDS011;10784;50.578;17.878;2023-02-15T01:24:12;34.75;;;13.60;;
21251;SDS011;10784;50.578;17.878;2023-02-15T01:26:45;46.25;;;14.50;;
21251;SDS011;10784;50.578;17.878;2023-02-15T01:29:18;34.97;;;13.88;;
21251;SDS011;10784;50.578;17.878;2023-02-15T01:31:51;30.45;;;12.15;;
21251;SDS011;10784;50.578;17.878;2023-02-15T01:34:24;39.05;;;13.95;;
21251;SDS011;10784;50.578;17.878;2023-02-15T01:36:57;46.42;;;16.27;;
21251;SDS011;10784;50.578;17.878;2023-02-15T01:39:30;47.15;;;16.55;;
21251;SDS011;10784;50.578;17.878;2023-02-15T01:42:03;44.53;;;14.07;;
21251;SDS011;10784;50.578;17.878;2023-02-15T01:44:46;35.47;;;13.70;;
21251;SDS011;10784;50.578;17.878;2023-02-15T01:50:03;34.35;;;11.80;;
21251;SDS011;10784;50.578;17.878;2023-02-15T01:52:40;41.15;;;14.80;;
21251;SDS011;10784;50.578;17.878;2023-02-15T01:55:16;39.30;;;13.48;;
21251;SDS011;10784;50.578;17.878;2023-02-15T01:57:49;42.20;;;15.70;;
21251;SDS011;10784;50.578;17.878;2023-02-15T02:00:23;36.05;;;12.98;;
21251;SDS011;10784;50.578;17.878;2023-02-15T02:02:56;45.45;;;14.32;;
21251;SDS011;10784;50.578;17.878;2023-02-15T02:05:29;36.08;;;12.43;;
21251;SDS011;10784;50.578;17.878;2023-02-15T02:08:02;43.55;;;12.32;;
21251;SDS011;10784;50.578;17.878;2023-02-15T02:10:35;43.15;;;13.18;;
21251;SDS011;10784;50.578;17.878;2023-02-15T02:13:09;33.13;;;11.95;;
21251;SDS011;10784;50.578;17.878;2023-02-15T02:21:08;31.20;;;11.45;;
21251;SDS011;10784;50.578;17.878;2023-02-15T02:23:51;40.77;;;14.70;;
21251;SDS011;10784;50.578;17.878;2023-02-15T02:34:45;34.58;;;12.38;;
21251;SDS011;10784;50.578;17.878;2023-02-15T02:42:37;38.13;;;14.50;;
21251;SDS011;10784;50.578;17.878;2023-02-15T02:47:57;40.97;;;12.07;;
21251;SDS011;10784;50.578;17.878;2023-02-15T02:50:32;36.55;;;12.32;;
21251;SDS011;10784;50.578;17.878;2023-02-15T02:53:05;43.72;;;14.68;;
21251;SDS011;10784;50.578;17.878;2023-02-15T02:58:20;42.08;;;15.15;;
21251;SDS011;10784;50.578;17.878;2023-02-15T03:00:56;24.92;;;11.68;;
21251;SDS011;10784;50.578;17.878;2023-02-15T03:06:11;39.53;;;12.85;;
21251;SDS011;10784;50.578;17.878;2023-02-15T03:08:46;35.97;;;13.27;;
21251;SDS011;10784;50.578;17.878;2023-02-15T03:11:20;29.75;;;12.68;;
21251;SDS011;10784;50.578;17.878;2023-02-15T03:13:55;36.17;;;12.80;;
21251;SDS011;10784;50.578;17.878;2023-02-15T03:16:28;48.40;;;15.30;;
21251;SDS011;10784;50.578;17.878;2023-02-15T03:19:08;36.63;;;13.48;;
21251;SDS011;10784;50.578;17.878;2023-02-15T03:21:43;29.80;;;11.27;;
21251;SDS011;10784;50.578;17.878;2023-02-15T03:24:36;37.88;;;13.63;;
21251;SDS011;10784;50.578;17.878;2023-02-15T03:27:12;40.05;;;14.45;;
21251;SDS011;10784;50.578;17.878;2023-02-15T03:29:52;41.60;;;15.25;;
21251;SDS011;10784;50.578;17.878;2023-02-15T03:32:27;32.05;;;12.63;;
21251;SDS011;10784;50.578;17.878;2023-02-15T03:35:00;43.30;;;12.30;;
21251;SDS011;10784;50.578;17.878;2023-02-15T03:37:41;42.45;;;12.38;;
21251;SDS011;10784;50.578;17.878;2023-02-15T03:45:38;32.30;;;11.40;;
21251;SDS011;10784;50.578;17.878;2023-02-15T03:48:31;33.38;;;13.02;;
21251;SDS011;10784;50.578;17.878;2023-02-15T03:51:07;29.77;;;11.70;;
21251;SDS011;10784;50.578;17.878;2023-02-15T03:54:09;41.70;;;13.30;;
21251;SDS011;10784;50.578;17.878;2023-02-15T03:56:42;22.35;;;10.80;;
21251;SDS011;10784;50.578;17.878;2023-02-15T03:59:35;48.83;;;14.63;;
21251;SDS011;10784;50.578;17.878;2023-02-15T04:02:27;30.98;;;11.95;;
21251;SDS011;10784;50.578;17.878;2023-02-15T04:05:01;30.15;;;11.40;;
21251;SDS011;10784;50.578;17.878;2023-02-15T04:07:34;39.17;;;14.35;;
21251;SDS011;10784;50.578;17.878;2023-02-15T04:10:07;40.97;;;12.57;;
21251;SDS011;10784;50.578;17.878;2023-02-15T04:12:58;27.88;;;11.88;;
21251;SDS011;10784;50.578;17.878;2023-02-15T04:15:31;32.97;;;13.55;;
21251;SDS011;10784;50.578;17.878;2023-02-15T04:18:23;36.80;;;13.60;;
21251;SDS011;10784;50.578;17.878;2023-02-15T04:21:15;45.42;;;14.00;;
21251;SDS011;10784;50.578;17.878;2023-02-15T04:24:06;32.63;;;12.25;;
21251;SDS011;10784;50.578;17.878;2023-02-15T04:26:57;35.55;;;13.02;;
21251;SDS011;10784;50.578;17.878;2023-02-15T04:29:30;50.45;;;16.25;;
21251;SDS011;10784;50.578;17.878;2023-02-15T04:32:03;39.97;;;13.05;;
21251;SDS011;10784;50.578;17.878;2023-02-15T04:34:36;29.95;;;12.45;;
21251;SDS011;10784;50.578;17.878;2023-02-15T04:37:09;35.60;;;14.00;;
21251;SDS011;10784;50.578;17.878;2023-02-15T04:39:42;26.40;;;10.95;;
21251;SDS011;10784;50.578;17.878;2023-02-15T04:42:15;38.90;;;11.90;;
21251;SDS011;10784;50.578;17.878;2023-02-15T04:44:48;27.63;;;11.10;;
21251;SDS011;10784;50.578;17.878;2023-02-15T04:47:21;37.08;;;12.50;;
21251;SDS011;10784;50.578;17.878;2023-02-15T04:49:54;33.67;;;12.88;;
21251;SDS011;10784;50.578;17.878;2023-02-15T04:52:29;37.15;;;11.85;;
21251;SDS011;10784;50.578;17.878;2023-02-15T04:55:01;38.05;;;12.20;;
21251;SDS011;10784;50.578;17.878;2023-02-15T04:57:35;32.05;;;11.85;;
21251;SDS011;10784;50.578;17.878;2023-02-15T05:00:07;30.23;;;12.02;;
21251;SDS011;10784;50.578;17.878;2023-02-15T05:02:41;56.00;;;17.70;;
21251;SDS011;10784;50.578;17.878;2023-02-15T05:05:14;73.13;;;22.63;;
21251;SDS011;10784;50.578;17.878;2023-02-15T05:07:47;62.22;;;20.88;;
21251;SDS011;10784;50.578;17.878;2023-02-15T05:10:20;53.28;;;18.30;;
21251;SDS011;10784;50.578;17.878;2023-02-15T05:12:53;50.08;;;19.17;;
21251;SDS011;10784;50.578;17.878;2023-02-15T05:15:26;43.42;;;16.30;;
21251;SDS011;10784;50.578;17.878;2023-02-15T05:17:59;52.38;;;16.38;;
21251;SDS011;10784;50.578;17.878;2023-02-15T05:20:31;48.58;;;17.52;;
21251;SDS011;10784;50.578;17.878;2023-02-15T05:23:04;50.08;;;15.95;;
21251;SDS011;10784;50.578;17.878;2023-02-15T05:25:37;42.50;;;14.90;;
21251;SDS011;10784;50.578;17.878;2023-02-15T05:28:28;44.45;;;15.35;;
21251;SDS011;10784;50.578;17.878;2023-02-15T05:31:11;46.00;;;16.63;;
21251;SDS011;10784;50.578;17.878;2023-02-15T05:33:45;51.45;;;20.27;;
21251;SDS011;10784;50.578;17.878;2023-02-15T05:36:18;68.82;;;24.60;;
21251;SDS011;10784;50.578;17.878;2023-02-15T05:38:51;53.97;;;19.35;;
21251;SDS011;10784;50.578;17.878;2023-02-15T05:41:23;47.70;;;17.88;;
21251;SDS011;10784;50.578;17.878;2023-02-15T05:43:58;64.00;;;21.48;;
21251;SDS011;10784;50.578;17.878;2023-02-15T05:46:30;62.00;;;21.15;;
21251;SDS011;10784;50.578;17.878;2023-02-15T05:49:03;54.58;;;18.92;;
21251;SDS011;10784;50.578;17.878;2023-02-15T05:51:36;54.22;;;22.25;;
21251;SDS011;10784;50.578;17.878;2023-02-15T05:54:09;59.45;;;19.83;;
21251;SDS011;10784;50.578;17.878;2023-02-15T05:56:42;43.35;;;18.40;;
21251;SDS011;10784;50.578;17.878;2023-02-15T05:59:14;56.83;;;20.35;;
21251;SDS011;10784;50.578;17.878;2023-02-15T06:01:47;40.55;;;15.63;;
21251;SDS011;10784;50.578;17.878;2023-02-15T06:04:20;54.08;;;17.27;;
21251;SDS011;10784;50.578;17.878;2023-02-15T06:06:52;53.58;;;17.48;;
21251;SDS011;10784;50.578;17.878;2023-02-15T06:09:25;44.20;;;16.40;;
21251;SDS011;10784;50.578;17.878;2023-02-15T06:11:58;43.22;;;16.10;;
21251;SDS011;10784;50.578;17.878;2023-02-15T06:14:31;41.05;;;17.25;;
21251;SDS011;10784;50.578;17.878;2023-02-15T06:17:03;43.20;;;17.27;;
21251;SDS011;10784;50.578;17.878;2023-02-15T06:19:36;49.20;;;19.48;;
21251;SDS011;10784;50.578;17.878;2023-02-15T06:22:09;43.20;;;17.40;;
21251;SDS011;10784;50.578;17.878;2023-02-15T06:24:42;39.90;;;13.40;;
21251;SDS011;10784;50.578;17.878;2023-02-15T06:27:14;54.33;;;18.00;;
21251;SDS011;10784;50.578;17.878;2023-02-15T06:29:47;42.22;;;16.60;;
21251;SDS011;10784;50.578;17.878;2023-02-15T06:32:20;50.65;;;17.88;;
21251;SDS011;10784;50.578;17.878;2023-02-15T06:34:53;54.88;;;17.77;;
21251;SDS011;10784;50.578;17.878;2023-02-15T06:37:25;49.80;;;17.45;;
21251;SDS011;10784;50.578;17.878;2023-02-15T06:39:59;46.03;;;16.83;;
21251;SDS011;10784;50.578;17.878;2023-02-15T06:42:34;56.92;;;18.70;;
21251;SDS011;10784;50.578;17.878;2023-02-15T06:45:07;52.75;;;17.02;;
21251;SDS011;10784;50.578;17.878;2023-02-15T06:47:40;49.38;;;17.02;;
21251;SDS011;10784;50.578;17.878;2023-02-15T06:50:13;54.42;;;18.08;;
21251;SDS011;10784;50.578;17.878;2023-02-15T06:52:45;51.10;;;16.45;;
21251;SDS011;10784;50.578;17.878;2023-02-15T06:55:18;50.83;;;15.48;;
21251;SDS011;10784;50.578;17.878;2023-02-15T06:57:51;40.72;;;16.77;;
21251;SDS011;10784;50.578;17.878;2023-02-15T07:00:24;37.35;;;15.18;;
21251;SDS011;10784;50.578;17.878;2023-02-15T07:02:57;38.55;;;15.40;;
21251;SDS011;10784;50.578;17.878;2023-02-15T07:05:32;41.67;;;15.88;;
21251;SDS011;10784;50.578;17.878;2023-02-15T07:08:05;50.78;;;15.57;;
21251;SDS011;10784;50.578;17.878;2023-02-15T07:10:37;40.38;;;14.00;;
21251;SDS011;10784;50.578;17.878;2023-02-15T07:13:10;43.40;;;17.25;;
21251;SDS011;10784;50.578;17.878;2023-02-15T07:15:43;49.53;;;15.23;;
21251;SDS011;10784;50.578;17.878;2023-02-15T07:18:16;45.47;;;17.90;;
21251;SDS011;10784;50.578;17.878;2023-02-15T07:20:49;55.97;;;16.30;;
21251;SDS011;10784;50.578;17.878;2023-02-15T07:23:22;52.60;;;16.27;;
21251;SDS011;10784;50.578;17.878;2023-02-15T07:25:58;40.97;;;17.65;;
21251;SDS011;10784;50.578;17.878;2023-02-15T07:28:35;48.85;;;17.15;;
21251;SDS011;10784;50.578;17.878;2023-02-15T07:31:08;47.83;;;16.65;;
21251;SDS011;10784;50.578;17.878;2023-02-15T07:33:41;40.08;;;17.17;;
21251;SDS011;10784;50.578;17.878;2023-02-15T07:36:15;55.95;;;18.50;;
21251;SDS011;10784;50.578;17.878;2023-02-15T07:38:47;50.35;;;16.75;;
21251;SDS011;10784;50.578;17.878;2023-02-15T07:41:20;34.03;;;15.13;;
21251;SDS011;10784;50.578;17.878;2023-02-15T07:43:53;44.00;;;17.60;;
21251;SDS011;10784;50.578;17.878;2023-02-15T07:46:26;48.20;;;18.08;;
21251;SDS011;10784;50.578;17.878;2023-02-15T07:48:58;44.13;;;16.33;;
21251;SDS011;10784;50.578;17.878;2023-02-15T07:51:31;44.10;;;16.35;;
21251;SDS011;10784;50.578;17.878;2023-02-15T07:54:04;49.15;;;17.38;;
21251;SDS011;10784;50.578;17.878;2023-02-15T07:56:37;47.13;;;17.80;;
21251;SDS011;10784;50.578;17.878;2023-02-15T07:59:10;41.33;;;18.48;;
21251;SDS011;10784;50.578;17.878;2023-02-15T08:01:43;43.92;;;18.13;;
21251;SDS011;10784;50.578;17.878;2023-02-15T08:04:15;43.95;;;16.63;;
21251;SDS011;10784;50.578;17.878;2023-02-15T08:06:52;54.42;;;19.35;;
21251;SDS011;10784;50.578;17.878;2023-02-15T08:09:25;41.53;;;15.88;;
21251;SDS011;10784;50.578;17.878;2023-02-15T08:11:57;40.10;;;15.98;;
21251;SDS011;10784;50.578;17.878;2023-02-15T08:14:30;47.92;;;17.70;;
21251;SDS011;10784;50.578;17.878;2023-02-15T08:17:04;53.58;;;17.20;;
21251;SDS011;10784;50.578;17.878;2023-02-15T08:19:37;45.13;;;16.20;;
21251;SDS011;10784;50.578;17.878;2023-02-15T08:22:11;46.92;;;17.60;;
21251;SDS011;10784;50.578;17.878;2023-02-15T08:24:44;55.13;;;18.40;;
21251;SDS011;10784;50.578;17.878;2023-02-15T08:27:17;48.53;;;19.73;;
21251;SDS011;10784;50.578;17.878;2023-02-15T08:29:50;46.53;;;18.17;;
21251;SDS011;10784;50.578;17.878;2023-02-15T08:32:23;49.22;;;19.65;;
21251;SDS011;10784;50.578;17.878;2023-02-15T08:34:55;54.80;;;16.73;;
21251;SDS011;10784;50.578;17.878;2023-02-15T08:37:28;46.15;;;17.92;;
21251;SDS011;10784;50.578;17.878;2023-02-15T08:40:01;46.40;;;18.42;;
21251;SDS011;10784;50.578;17.878;2023-02-15T08:42:35;38.53;;;16.80;;
21251;SDS011;10784;50.578;17.878;2023-02-15T08:45:08;45.80;;;18.48;;
21251;SDS011;10784;50.578;17.878;2023-02-15T08:47:41;55.03;;;19.33;;
21251;SDS011;10784;50.578;17.878;2023-02-15T08:50:13;55.53;;;19.20;;
21251;SDS011;10784;50.578;17.878;2023-02-15T08:52:46;49.95;;;17.80;;
21251;SDS011;10784;50.578;17.878;2023-02-15T08:55:19;54.60;;;21.52;;
21251;SDS011;10784;50.578;17.878;2023-02-15T08:57:51;49.45;;;18.92;;
21251;SDS011;10784;50.578;17.878;2023-02-15T09:00:27;52.42;;;19.23;;
21251;SDS011;10784;50.578;17.878;2023-02-15T09:03:00;45.55;;;19.73;;
21251;SDS011;10784;50.578;17.878;2023-02-15T09:05:33;45.53;;;17.17;;
21251;SDS011;10784;50.578;17.878;2023-02-15T09:08:06;45.50;;;18.17;;
21251;SDS011;10784;50.578;17.878;2023-02-15T09:10:38;45.40;;;19.40;;
21251;SDS011;10784;50.578;17.878;2023-02-15T09:13:11;52.70;;;18.85;;
21251;SDS011;10784;50.578;17.878;2023-02-15T09:15:45;51.75;;;19.20;;
21251;SDS011;10784;50.578;17.878;2023-02-15T09:18:18;54.42;;;20.27;;
21251;SDS011;10784;50.578;17.878;2023-02-15T09:20:51;49.10;;;17.67;;
21251;SDS011;10784;50.578;17.878;2023-02-15T09:23:24;41.53;;;17.88;;
21251;SDS011;10784;50.578;17.878;2023-02-15T09:26:01;53.70;;;18.55;;
21251;SDS011;10784;50.578;17.878;2023-02-15T09:28:34;46.70;;;17.67;;
21251;SDS011;10784;50.578;17.878;2023-02-15T09:33:40;46.58;;;18.92;;
21251;SDS011;10784;50.578;17.878;2023-02-15T09:36:20;46.35;;;18.63;;
21251;SDS011;10784;50.578;17.878;2023-02-15T09:38:58;58.15;;;21.20;;
21251;SDS011;10784;50.578;17.878;2023-02-15T09:50:06;42.70;;;16.85;;
21251;SDS011;10784;50.578;17.878;2023-02-15T09:58:32;42.83;;;15.82;;
21251;SDS011;10784;50.578;17.878;2023-02-15T10:09:01;55.15;;;18.58;;
21251;SDS011;10784;50.578;17.878;2023-02-15T10:17:04;50.20;;;17.98;;
21251;SDS011;10784;50.578;17.878;2023-02-15T10:22:30;43.33;;;17.67;;
21251;SDS011;10784;50.578;17.878;2023-02-15T10:27:47;50.75;;;17.50;;
21251;SDS011;10784;50.578;17.878;2023-02-15T10:30:23;51.70;;;17.92;;
21251;SDS011;10784;50.578;17.878;2023-02-15T10:32:59;47.13;;;17.35;;
21251;SDS011;10784;50.578;17.878;2023-02-15T10:43:39;54.22;;;17.13;;
21251;SDS011;10784;50.578;17.878;2023-02-15T10:46:23;51.70;;;15.65;;
21251;SDS011;10784;50.578;17.878;2023-02-15T10:57:21;47.10;;;15.32;;
21251;SDS011;10784;50.578;17.878;2023-02-15T11:05:22;34.17;;;15.10;;
21251;SDS011;10784;50.578;17.878;2023-02-15T11:07:57;42.80;;;15.40;;
21251;SDS011;10784;50.578;17.878;2023-02-15T11:10:33;42.80;;;12.75;;
21251;SDS011;10784;50.578;17.878;2023-02-15T11:13:14;40.88;;;13.07;;
21251;SDS011;10784;50.578;17.878;2023-02-15T11:15:55;40.13;;;13.15;;
21251;SDS011;10784;50.578;17.878;2023-02-15T11:18:42;37.30;;;12.73;;
21251;SDS011;10784;50.578;17.878;2023-02-15T11:23:52;43.40;;;14.18;;
21251;SDS011;10784;50.578;17.878;2023-02-15T11:29:06;37.80;;;12.18;;
21251;SDS011;10784;50.578;17.878;2023-02-15T11:31:44;32.65;;;12.57;;
21251;SDS011;10784;50.578;17.878;2023-02-15T11:34:21;30.77;;;11.18;;
21251;SDS011;10784;50.578;17.878;2023-02-15T11:36:58;32.63;;;10.95;;
21251;SDS011;10784;50.578;17.878;2023-02-15T11:39:31;37.05;;;12.13;;
21251;SDS011;10784;50.578;17.878;2023-02-15T11:42:11;26.13;;;10.25;;
21251;SDS011;10784;50.578;17.878;2023-02-15T11:47:24;36.13;;;13.70;;
21251;SDS011;10784;50.578;17.878;2023-02-15T11:49:57;34.38;;;11.73;;
21251;SDS011;10784;50.578;17.878;2023-02-15T11:52:30;32.30;;;11.38;;
21251;SDS011;10784;50.578;17.878;2023-02-15T11:55:09;31.83;;;10.10;;
21251;SDS011;10784;50.578;17.878;2023-02-15T11:57:45;23.60;;;8.73;;
21251;SDS011;10784;50.578;17.878;2023-02-15T12:00:29;25.38;;;8.98;;
21251;SDS011;10784;50.578;17.878;2023-02-15T12:03:07;22.63;;;8.23;;
21251;SDS011;10784;50.578;17.878;2023-02-15T12:05:42;21.45;;;8.07;;
21251;SDS011;10784;50.578;17.878;2023-02-15T12:08:17;18.63;;;7.88;;
21251;SDS011;10784;50.578;17.878;2023-02-15T12:13:30;18.88;;;8.23;;
21251;SDS011;10784;50.578;17.878;2023-02-15T12:16:06;14.85;;;7.00;;
21251;SDS011;10784;50.578;17.878;2023-02-15T12:18:43;16.60;;;6.95;;
21251;SDS011;10784;50.578;17.878;2023-02-15T12:21:27;10.90;;;5.78;;
21251;SDS011;10784;50.578;17.878;2023-02-15T12:24:12;25.70;;;8.13;;
21251;SDS011;10784;50.578;17.878;2023-02-15T12:26:57;19.70;;;8.48;;
21251;SDS011;10784;50.578;17.878;2023-02-15T12:32:24;24.80;;;8.77;;
21251;SDS011;10784;50.578;17.878;2023-02-15T12:35:08;12.40;;;5.85;;
21251;SDS011;10784;50.578;17.878;2023-02-15T12:37:51;13.88;;;7.18;;
21251;SDS011;10784;50.578;17.878;2023-02-15T12:40:25;20.48;;;7.63;;
21251;SDS011;10784;50.578;17.878;2023-02-15T12:43:02;17.30;;;6.65;;
21251;SDS011;10784;50.578;17.878;2023-02-15T12:45:41;16.80;;;7.07;;
21251;SDS011;10784;50.578;17.878;2023-02-15T12:50:49;26.05;;;7.90;;
21251;SDS011;10784;50.578;17.878;2023-02-15T12:53:33;20.63;;;7.07;;
21251;SDS011;10784;50.578;17.878;2023-02-15T12:56:07;22.83;;;7.85;;
21251;SDS011;10784;50.578;17.878;2023-02-15T12:58:40;13.63;;;6.15;;
21251;SDS011;10784;50.578;17.878;2023-02-15T13:03:53;14.60;;;6.47;;
21251;SDS011;10784;50.578;17.878;2023-02-15T13:06:27;16.80;;;6.22;;
21251;SDS011;10784;50.578;17.878;2023-02-15T13:09:13;12.60;;;5.22;;
21251;SDS011;10784;50.578;17.878;2023-02-15T13:11:47;21.92;;;8.38;;
21251;SDS011;10784;50.578;17.878;2023-02-15T13:14:30;16.58;;;5.20;;
21251;SDS011;10784;50.578;17.878;2023-02-15T13:17:04;9.35;;;4.50;;
21251;SDS011;10784;50.578;17.878;2023-02-15T13:19:40;15.38;;;6.50;;
21251;SDS011;10784;50.578;17.878;2023-02-15T13:22:17;20.55;;;7.40;;
21251;SDS011;10784;50.578;17.878;2023-02-15T13:24:52;16.15;;;5.95;;
21251;SDS011;10784;50.578;17.878;2023-02-15T13:27:31;20.77;;;6.13;;
21251;SDS011;10784;50.578;17.878;2023-02-15T13:30:10;13.40;;;5.57;;
21251;SDS011;10784;50.578;17.878;2023-02-15T13:32:46;19.02;;;7.32;;
21251;SDS011;10784;50.578;17.878;2023-02-15T13:35:21;20.23;;;6.38;;
21251;SDS011;10784;50.578;17.878;2023-02-15T13:40:38;13.85;;;5.40;;
21251;SDS011;10784;50.578;17.878;2023-02-15T13:48:41;21.67;;;6.20;;
21251;SDS011;10784;50.578;17.878;2023-02-15T14:04:58;15.43;;;6.97;;
21251;SDS011;10784;50.578;17.878;2023-02-15T14:07:41;16.80;;;6.28;;
21251;SDS011;10784;50.578;17.878;2023-02-15T14:26:02;17.55;;;6.57;;
21251;SDS011;10784;50.578;17.878;2023-02-15T14:31:28;21.13;;;8.18;;
21251;SDS011;10784;50.578;17.878;2023-02-15T14:34:02;24.15;;;7.45;;
21251;SDS011;10784;50.578;17.878;2023-02-15T14:36:36;22.98;;;7.55;;
21251;SDS011;10784;50.578;17.878;2023-02-15T14:42:23;18.35;;;6.82;;
21251;SDS011;10784;50.578;17.878;2023-02-15T14:47:50;26.25;;;7.75;;
21251;SDS011;10784;50.578;17.878;2023-02-15T14:56:02;25.83;;;8.60;;
21251;SDS011;10784;50.578;17.878;2023-02-15T14:58:37;17.10;;;7.47;;
21251;SDS011;10784;50.578;17.878;2023-02-15T15:01:10;18.65;;;8.10;;
21251;SDS011;10784;50.578;17.878;2023-02-15T15:03:47;19.40;;;7.72;;
21251;SDS011;10784;50.578;17.878;2023-02-15T15:06:57;18.88;;;6.95;;
21251;SDS011;10784;50.578;17.878;2023-02-15T15:09:30;20.98;;;8.63;;
21251;SDS011;10784;50.578;17.878;2023-02-15T15:12:14;22.48;;;8.07;;
21251;SDS011;10784;50.578;17.878;2023-02-15T15:14:47;22.02;;;8.20;;
21251;SDS011;10784;50.578;17.878;2023-02-15T15:20:19;23.02;;;7.05;;
21251;SDS011;10784;50.578;17.878;2023-02-15T15:50:29;26.40;;;8.23;;
21251;SDS011;10784;50.578;17.878;2023-02-15T15:53:03;14.13;;;6.55;;
21251;SDS011;10784;50.578;17.878;2023-02-15T15:55:36;22.98;;;8.75;;
21251;SDS011;10784;50.578;17.878;2023-02-15T15:58:09;21.77;;;7.93;;
21251;SDS011;10784;50.578;17.878;2023-02-15T16:01:02;18.90;;;8.40;;
21251;SDS011;10784;50.578;17.878;2023-02-15T16:03:36;28.77;;;9.18;;
21251;SDS011;10784;50.578;17.878;2023-02-15T16:06:11;23.17;;;10.07;;
21251;SDS011;10784;50.578;17.878;2023-02-15T16:08:45;26.65;;;9.93;;
21251;SDS011;10784;50.578;17.878;2023-02-15T16:11:19;24.50;;;10.27;;
21251;SDS011;10784;50.578;17.878;2023-02-15T16:13:53;51.35;;;15.25;;
21251;SDS011;10784;50.578;17.878;2023-02-15T16:16:27;29.65;;;11.57;;
21251;SDS011;10784;50.578;17.878;2023-02-15T16:19:01;33.13;;;11.68;;
21251;SDS011;10784;50.578;17.878;2023-02-15T16:21:34;39.97;;;13.52;;
21251;SDS011;10784;50.578;17.878;2023-02-15T16:29:38;48.28;;;15.75;;
21251;SDS011;10784;50.578;17.878;2023-02-15T16:32:21;34.70;;;13.75;;
21251;SDS011;10784;50.578;17.878;2023-02-15T16:34:59;78.80;;;24.58;;
21251;SDS011;10784;50.578;17.878;2023-02-15T16:37:32;41.65;;;14.60;;
21251;SDS011;10784;50.578;17.878;2023-02-15T16:40:11;38.33;;;14.93;;
21251;SDS011;10784;50.578;17.878;2023-02-15T16:42:59;34.90;;;10.67;;
21251;SDS011;10784;50.578;17.878;2023-02-15T16:45:34;30.50;;;11.27;;
21251;SDS011;10784;50.578;17.878;2023-02-15T16:48:13;31.65;;;10.75;;
21251;SDS011;10784;50.578;17.878;2023-02-15T16:50:50;50.33;;;19.70;;
21251;SDS011;10784;50.578;17.878;2023-02-15T16:53:24;75.43;;;27.00;;
21251;SDS011;10784;50.578;17.878;2023-02-15T16:55:58;112.78;;;39.33;;
21251;SDS011;10784;50.578;17.878;2023-02-15T16:58:39;64.05;;;23.17;;
21251;SDS011;10784;50.578;17.878;2023-02-15T17:01:14;82.38;;;27.20;;
21251;SDS011;10784;50.578;17.878;2023-02-15T17:03:51;74.50;;;20.00;;
21251;SDS011;10784;50.578;17.878;2023-02-15T17:06:25;87.43;;;27.77;;
21251;SDS011;10784;50.578;17.878;2023-02-15T17:09:05;91.50;;;25.23;;
21251;SDS011;10784;50.578;17.878;2023-02-15T17:11:42;56.92;;;15.55;;
21251;SDS011;10784;50.578;17.878;2023-02-15T17:14:19;42.80;;;15.40;;
21251;SDS011;10784;50.578;17.878;2023-02-15T17:16:54;72.63;;;24.33;;
21251;SDS011;10784;50.578;17.878;2023-02-15T17:19:32;120.20;;;33.80;;
21251;SDS011;10784;50.578;17.878;2023-02-15T17:22:06;114.10;;;35.47;;
21251;SDS011;10784;50.578;17.878;2023-02-15T17:24:40;84.35;;;26.42;;
21251;SDS011;10784;50.578;17.878;2023-02-15T17:27:20;66.07;;;19.80;;
21251;SDS011;10784;50.578;17.878;2023-02-15T17:29:58;69.63;;;18.80;;
21251;SDS011;10784;50.578;17.878;2023-02-15T17:32:32;76.18;;;26.83;;
21251;SDS011;10784;50.578;17.878;2023-02-15T17:35:20;50.50;;;17.77;;
21251;SDS011;10784;50.578;17.878;2023-02-15T17:38:06;39.40;;;14.63;;
21251;SDS011;10784;50.578;17.878;2023-02-15T17:40:47;39.20;;;14.38;;
21251;SDS011;10784;50.578;17.878;2023-02-15T17:43:20;38.25;;;13.88;;
21251;SDS011;10784;50.578;17.878;2023-02-15T17:45:52;35.70;;;16.17;;
21251;SDS011;10784;50.578;17.878;2023-02-15T17:48:34;33.30;;;13.80;;
21251;SDS011;10784;50.578;17.878;2023-02-15T17:51:10;54.28;;;17.08;;
21251;SDS011;10784;50.578;17.878;2023-02-15T17:53:44;62.78;;;19.05;;
21251;SDS011;10784;50.578;17.878;2023-02-15T17:56:37;61.78;;;20.27;;
21251;SDS011;10784;50.578;17.878;2023-02-15T17:59:10;101.88;;;32.53;;
21251;SDS011;10784;50.578;17.878;2023-02-15T18:01:46;102.13;;;30.48;;
21251;SDS011;10784;50.578;17.878;2023-02-15T18:04:38;129.27;;;34.30;;
21251;SDS011;10784;50.578;17.878;2023-02-15T18:07:29;90.20;;;26.47;;
21251;SDS011;10784;50.578;17.878;2023-02-15T18:10:21;157.48;;;43.88;;
21251;SDS011;10784;50.578;17.878;2023-02-15T18:13:11;97.32;;;32.80;;
21251;SDS011;10784;50.578;17.878;2023-02-15T18:15:44;50.65;;;20.10;;
21251;SDS011;10784;50.578;17.878;2023-02-15T18:18:17;65.65;;;22.30;;
21251;SDS011;10784;50.578;17.878;2023-02-15T18:20:50;37.17;;;15.27;;